createdAt,value
2018-12-02T00:00:59.932Z,85.736084
2018-12-02T00:06:22.664Z,85.839844
2018-12-02T00:11:45.398Z,86.907959
2018-12-02T00:17:08.096Z,86.700439
2018-12-02T00:22:30.802Z,86.602783
2018-12-02T00:27:53.525Z,86.499023
2018-12-02T00:33:16.240Z,86.804199
2018-12-02T00:38:38.905Z,86.767578
2018-12-02T00:44:02.030Z,86.456299
2018-12-02T00:49:24.256Z,86.663818
2018-12-02T00:54:46.969Z,87.280273
2018-12-02T01:00:09.635Z,87.792969
2018-12-02T01:05:32.275Z,88.140869
2018-12-02T01:10:54.961Z,87.731934
2018-12-02T01:16:18.480Z,87.896729
2018-12-02T01:21:41.944Z,89.581299
2018-12-02T01:27:04.744Z,89.892578
2018-12-02T01:32:27.657Z,89.477539
2018-12-02T01:37:51.989Z,88.513184
2018-12-02T01:43:14.714Z,88.104248
2018-12-02T01:48:37.401Z,88.104248
2018-12-02T01:54:00.174Z,88.305664
2018-12-02T01:59:22.908Z,86.724854
2018-12-02T02:04:46.604Z,86.621094
2018-12-02T02:10:09.324Z,86.828613
2018-12-02T02:15:32.016Z,86.419678
2018-12-02T02:20:54.690Z,87.036133
2018-12-02T02:26:17.326Z,85.900879
2018-12-02T02:31:40.833Z,86.065674
2018-12-02T02:37:03.460Z,86.065674
2018-12-02T02:42:28.115Z,86.169434
2018-12-02T02:47:50.788Z,86.682129
2018-12-02T02:53:13.491Z,86.065674
2018-12-02T02:58:37.147Z,86.273193
2018-12-02T03:04:01.423Z,86.065674
2018-12-02T03:09:24.191Z,85.864258
2018-12-02T03:14:46.913Z,86.480713
2018-12-02T03:20:09.578Z,85.552979
2018-12-02T03:25:32.313Z,85.864258
2018-12-02T03:30:55.838Z,86.273193
2018-12-02T03:36:18.553Z,86.065674
2018-12-02T03:41:41.598Z,86.169434
2018-12-02T03:47:04.239Z,86.273193
2018-12-02T03:52:26.963Z,89.044189
2018-12-02T03:57:50.457Z,91.552734
2018-12-02T04:03:13.305Z,93.035889
2018-12-02T04:08:35.990Z,95.196533
2018-12-02T04:13:58.935Z,96.783447
2018-12-02T04:19:21.856Z,97.961426
2018-12-02T04:24:44.779Z,98.883057
2018-12-02T04:30:07.559Z,99.194336
2018-12-02T04:35:31.149Z,99.603271
2018-12-02T04:40:53.774Z,99.707031
2018-12-02T04:46:16.438Z,99.993896
2018-12-02T04:51:38.996Z,99.993896
2018-12-02T04:57:02.469Z,99.993896
2018-12-02T05:02:25.070Z,99.993896
2018-12-02T05:07:48.466Z,99.993896
2018-12-02T05:13:11.128Z,99.993896
2018-12-02T05:18:33.759Z,99.993896
2018-12-02T05:23:56.374Z,99.993896
2018-12-02T05:29:19.080Z,99.993896
2018-12-02T05:34:41.780Z,99.993896
2018-12-02T05:40:04.563Z,99.993896
2018-12-02T05:45:27.222Z,99.993896
2018-12-02T05:50:49.941Z,99.993896
2018-12-02T05:56:13.658Z,99.993896
2018-12-02T06:01:36.301Z,99.993896
2018-12-02T06:06:58.927Z,99.993896
2018-12-02T06:12:21.640Z,99.993896
2018-12-02T06:17:44.377Z,99.993896
2018-12-02T06:23:07.032Z,99.993896
2018-12-02T06:28:29.797Z,99.993896
2018-12-02T06:33:52.480Z,99.993896
2018-12-02T06:39:15.117Z,99.993896
2018-12-02T06:44:38.773Z,99.993896
2018-12-02T06:50:01.403Z,99.993896
2018-12-02T06:55:24.154Z,99.993896
2018-12-02T07:00:46.875Z,99.993896
2018-12-02T07:06:09.508Z,99.993896
2018-12-02T07:11:32.252Z,99.993896
2018-12-02T07:16:55.189Z,99.993896
2018-12-02T07:22:18.157Z,99.993896
2018-12-02T07:27:40.956Z,99.993896
2018-12-02T07:33:03.591Z,99.993896
2018-12-02T07:38:26.255Z,99.993896
2018-12-02T07:43:49.661Z,99.993896
2018-12-02T07:49:12.297Z,99.993896
2018-12-02T07:54:35.048Z,99.993896
2018-12-02T07:59:57.833Z,99.993896
2018-12-02T08:05:20.567Z,99.993896
2018-12-02T08:10:43.247Z,99.993896
2018-12-02T08:16:05.935Z,99.993896
2018-12-02T08:21:28.609Z,99.993896
2018-12-02T08:26:51.333Z,99.993896
2018-12-02T08:32:14.112Z,99.993896
2018-12-02T08:37:37.763Z,99.993896
2018-12-02T08:43:00.566Z,99.993896
2018-12-02T08:48:23.380Z,99.993896
2018-12-02T08:53:46.108Z,99.993896
2018-12-02T08:59:08.762Z,99.993896
2018-12-02T09:04:31.450Z,99.993896
2018-12-02T09:09:59.277Z,99.993896
2018-12-02T09:15:16.961Z,99.993896
2018-12-02T09:20:39.763Z,99.993896
2018-12-02T09:26:02.444Z,99.993896
2018-12-02T09:31:25.129Z,99.993896
2018-12-02T09:36:47.813Z,99.993896
2018-12-02T09:42:11.568Z,99.993896
2018-12-02T09:47:34.234Z,99.993896
2018-12-02T09:52:56.903Z,99.993896
2018-12-02T09:58:19.563Z,99.993896
2018-12-02T10:03:42.492Z,99.993896
2018-12-02T10:09:05.304Z,99.993896
2018-12-02T10:14:29.599Z,99.993896
2018-12-02T10:19:52.784Z,99.993896
2018-12-02T10:25:15.541Z,99.993896
2018-12-02T10:30:38.287Z,99.993896
2018-12-02T10:36:01.073Z,99.993896
2018-12-02T10:41:23.708Z,99.993896
2018-12-02T10:46:46.588Z,99.993896
2018-12-02T10:52:09.258Z,99.993896
2018-12-02T10:57:31.937Z,99.993896
2018-12-02T11:02:54.815Z,99.993896
2018-12-02T11:08:17.596Z,99.993896
2018-12-02T11:13:40.470Z,99.993896
2018-12-02T11:19:03.298Z,99.993896
2018-12-02T11:24:26.124Z,99.993896
2018-12-02T11:29:49.494Z,99.993896
2018-12-02T11:35:12.254Z,99.993896
2018-12-02T11:40:35.076Z,99.993896
2018-12-02T11:45:58.402Z,99.993896
2018-12-02T11:51:21.104Z,99.993896
2018-12-02T11:56:44.548Z,99.993896
2018-12-02T12:02:07.712Z,99.993896
2018-12-02T12:07:30.063Z,99.993896
2018-12-02T12:12:52.740Z,99.993896
2018-12-02T12:18:15.616Z,99.993896
2018-12-02T12:23:39.121Z,99.993896
2018-12-02T12:29:01.782Z,99.993896
2018-12-02T12:34:24.441Z,99.993896
2018-12-02T12:39:47.103Z,99.993896
2018-12-02T12:45:09.771Z,99.993896
2018-12-02T12:50:33.193Z,99.993896
2018-12-02T12:55:55.856Z,99.993896
2018-12-02T13:01:18.535Z,99.993896
2018-12-02T13:06:41.210Z,99.993896
2018-12-02T13:12:03.865Z,99.993896
2018-12-02T13:17:27.008Z,99.993896
2018-12-02T13:22:49.765Z,99.993896
2018-12-02T13:28:12.556Z,99.993896
2018-12-02T13:33:35.201Z,99.993896
2018-12-02T13:38:57.936Z,99.993896
2018-12-02T13:44:20.679Z,99.993896
2018-12-02T13:49:43.620Z,99.993896
2018-12-02T13:55:06.289Z,99.993896
2018-12-02T14:00:28.927Z,99.993896
2018-12-02T14:05:51.617Z,99.993896
2018-12-02T14:11:14.318Z,99.993896
2018-12-02T14:16:37.173Z,99.993896
2018-12-02T14:21:59.914Z,99.993896
2018-12-02T14:27:22.723Z,99.993896
2018-12-02T14:32:46.271Z,99.993896
2018-12-02T14:38:08.885Z,99.993896
2018-12-02T14:43:32.032Z,99.993896
2018-12-02T14:48:54.697Z,99.993896
2018-12-02T14:54:17.372Z,99.993896
2018-12-02T14:59:40.277Z,99.993896
2018-12-02T15:05:03.004Z,99.993896
2018-12-02T15:10:25.653Z,99.993896
2018-12-02T15:15:48.351Z,99.993896
2018-12-02T15:21:11.208Z,99.993896
2018-12-02T15:26:33.965Z,99.993896
2018-12-02T15:31:56.688Z,99.993896
2018-12-02T15:37:19.445Z,99.993896
2018-12-02T15:42:42.117Z,99.993896
2018-12-02T15:48:05.610Z,99.993896
2018-12-02T15:53:28.332Z,99.993896
2018-12-02T15:58:51.224Z,99.993896
2018-12-02T16:04:13.912Z,99.993896
2018-12-02T16:09:36.873Z,99.993896
2018-12-02T16:14:59.697Z,99.945068
2018-12-02T16:20:22.370Z,98.364258
2018-12-02T16:25:45.231Z,98.162842
2018-12-02T16:31:08.876Z,98.10791
2018-12-02T16:36:31.591Z,99.072266
2018-12-02T16:41:54.349Z,99.072266
2018-12-02T16:47:17.056Z,98.10791
2018-12-02T16:52:39.809Z,98.00415
2018-12-02T16:58:02.469Z,97.698975
2018-12-02T17:03:25.309Z,97.491455
2018-12-02T17:08:48.067Z,98.864746
2018-12-02T17:14:10.689Z,97.698975
2018-12-02T17:19:36.685Z,98.00415
2018-12-02T17:24:59.405Z,98.10791
2018-12-02T17:30:22.074Z,98.55957
2018-12-02T17:35:44.821Z,98.76709
2018-12-02T17:41:08.452Z,98.66333
2018-12-02T17:46:31.083Z,98.864746
2018-12-02T17:51:53.713Z,98.66333
2018-12-02T17:57:16.334Z,97.802734
2018-12-02T18:02:39.055Z,97.491455
2018-12-02T18:08:01.714Z,97.436523
2018-12-02T18:13:24.581Z,98.254395
2018-12-02T18:18:47.374Z,97.436523
2018-12-02T18:24:10.014Z,98.706055
2018-12-02T18:29:32.631Z,97.540283
2018-12-02T18:34:55.415Z,98.358154
2018-12-02T18:40:18.118Z,97.741699
2018-12-02T18:45:40.797Z,97.235107
2018-12-02T18:51:03.546Z,98.150635
2018-12-02T18:56:26.219Z,96.984863
2018-12-02T19:01:48.989Z,97.540283
2018-12-02T19:07:11.648Z,97.741699
2018-12-02T19:12:34.293Z,97.540283
2018-12-02T19:17:56.932Z,96.881104
2018-12-02T19:23:19.553Z,97.393799
2018-12-02T19:28:42.472Z,97.436523
2018-12-02T19:34:05.970Z,97.235107
2018-12-02T19:39:28.705Z,96.722412
2018-12-02T19:44:51.385Z,97.027588
2018-12-02T19:50:14.116Z,95.758057
2018-12-02T19:55:37.516Z,96.008301
2018-12-02T20:01:00.158Z,96.209717
2018-12-02T20:06:22.865Z,96.722412
2018-12-02T20:11:45.580Z,97.174072
2018-12-02T20:17:09.763Z,96.008301
2018-12-02T20:22:32.447Z,95.800781
2018-12-02T20:27:55.668Z,96.514893
2018-12-02T20:33:18.353Z,96.923828
2018-12-02T20:38:40.965Z,96.166992
2018-12-02T20:44:03.635Z,95.861816
2018-12-02T20:49:26.313Z,96.313477
2018-12-02T20:54:48.977Z,96.166992
2018-12-02T21:00:11.628Z,95.410156
2018-12-02T21:05:34.361Z,95.861816
2018-12-02T21:10:57.065Z,95.812988
2018-12-02T21:16:19.708Z,96.368408
2018-12-02T21:21:42.493Z,96.368408
2018-12-02T21:27:06.117Z,96.575928
2018-12-02T21:32:28.744Z,96.020508
2018-12-02T21:37:51.560Z,96.429443
2018-12-02T21:43:14.329Z,96.325684
2018-12-02T21:48:37.066Z,96.777344
2018-12-02T21:54:00.420Z,97.08252
2018-12-02T21:59:25.395Z,97.595215
2018-12-02T22:04:48.102Z,97.650146
2018-12-02T22:10:10.882Z,98.00415
2018-12-02T22:15:33.561Z,98.10791
2018-12-02T22:20:56.281Z,98.516846
2018-12-02T22:26:19.017Z,99.127197
2018-12-02T22:31:42.700Z,99.432373
2018-12-02T22:37:05.437Z,99.993896
2018-12-02T22:42:28.134Z,99.993896
2018-12-02T22:47:51.080Z,99.993896
2018-12-02T22:53:13.824Z,99.993896
2018-12-02T22:58:36.575Z,99.993896
2018-12-02T23:03:59.514Z,99.993896
2018-12-02T23:09:22.207Z,99.993896
2018-12-02T23:14:44.880Z,99.993896
2018-12-02T23:20:07.557Z,99.993896
2018-12-02T23:25:30.207Z,99.993896
2018-12-02T23:30:52.872Z,99.993896
2018-12-02T23:36:15.538Z,99.993896
2018-12-02T23:41:38.374Z,99.993896
2018-12-02T23:47:01.102Z,99.993896
2018-12-02T23:52:23.747Z,99.993896
2018-12-02T23:57:46.586Z,99.993896
